<?xml version="1.0" encoding="UTF-8" standalone="no" ?>
<gpx xmlns="http://www.topografix.com/GPX/1/1" xmlns:xsi="http://www.w3.org/2001/XMLSchema-instance" xsi:schemaLocation="http://www.topografix.com/GPX/1/1 http://www.topografix.com/GPX/1/1/gpx.xsd" version="1.1" creator="VisuGPX - https://www.visugpx.com">
  <metadata>
    <name>GTA Raids 1+2+3</name>
    <desc><![CDATA[#GTA]]></desc>
  </metadata>
  <trk>
    <name><![CDATA[GTA 01 - De Menton à Sospel]]></name>
    <extensions>
      <line xmlns="http://www.topografix.com/GPX/gpx_style/0/2">
        <color>0000FF</color>
        <width>4</width>
      </line>
    </extensions>
    <trkseg>
      <trkpt lat="43.77255" lon="7.49903">
        <ele>8.389614</ele>
        <time>2022-10-18T15:33:35.040Z</time>
      </trkpt>
      <trkpt lat="43.77285" lon="7.49962">
        <ele>8.389614</ele>
        <time>2022-10-18T15:34:37.734Z</time>
      </trkpt>
      <trkpt lat="43.773" lon="7.49979">
        <ele>8.389614</ele>
        <time>2022-10-18T15:35:00.461Z</time>
      </trkpt>
      <trkpt lat="43.77336" lon="7.49938">
        <ele>8.820985</ele>
        <time>2022-10-18T15:35:58.822Z</time>
      </trkpt>
      <trkpt lat="43.77334" lon="7.49933">
        <ele>8.880562</ele>
        <time>2022-10-18T15:36:03.711Z</time>
      </trkpt>
      <trkpt lat="43.77311" lon="7.49885">
        <ele>9.524147</ele>
        <time>2022-10-18T15:36:55.959Z</time>
      </trkpt>
      <trkpt lat="43.77301" lon="7.49867">
        <ele>9.776522</ele>
        <time>2022-10-18T15:37:16.635Z</time>
      </trkpt>
      <trkpt lat="43.77313" lon="7.49855">
        <ele>10.007963</ele>
        <time>2022-10-18T15:37:36.301Z</time>
      </trkpt>
      <trkpt lat="43.77311" lon="7.49846">
        <ele>10.115361</ele>
        <time>2022-10-18T15:37:44.925Z</time>
      </trkpt>
      <trkpt lat="43.77323" lon="7.4983">
        <ele>10.366327</ele>
        <time>2022-10-18T15:38:05.770Z</time>
      </trkpt>
      <trkpt lat="43.77345" lon="7.49802">
        <ele>10.832574</ele>
        <time>2022-10-18T15:38:44.234Z</time>
      </trkpt>
      <trkpt lat="43.77366" lon="7.49774">
        <ele>11.354514</ele>
        <time>2022-10-18T15:39:21.625Z</time>
      </trkpt>
      <trkpt lat="43.77372" lon="7.49767">
        <ele>11.552851</ele>
        <time>2022-10-18T15:39:31.506Z</time>
      </trkpt>
      <trkpt lat="43.774" lon="7.49731">
        <ele>12.488985</ele>
        <time>2022-10-18T15:40:20.225Z</time>
      </trkpt>
      <trkpt lat="43.77408" lon="7.49721">
        <ele>12.775195</ele>
        <time>2022-10-18T15:40:35.795Z</time>
      </trkpt>
      <trkpt lat="43.77416" lon="7.4971">
        <ele>13.055297</ele>
        <time>2022-10-18T15:40:50.738Z</time>
      </trkpt>
      <trkpt lat="43.77434" lon="7.49687">
        <ele>13.663109</ele>
        <time>2022-10-18T15:41:23.362Z</time>
      </trkpt>
      <trkpt lat="43.7744" lon="7.4969">
        <ele>13.823806</ele>
        <time>2022-10-18T15:41:31.985Z</time>
      </trkpt>
      <trkpt lat="43.77449" lon="7.49676">
        <ele>14.162394</ele>
        <time>2022-10-18T15:41:49.855Z</time>
      </trkpt>
      <trkpt lat="43.77456" lon="7.49669">
        <ele>14.365917</ele>
        <time>2022-10-18T15:42:00.711Z</time>
      </trkpt>
      <trkpt lat="43.77452" lon="7.49641">
        <ele>14.872289</ele>
        <time>2022-10-18T15:42:27.265Z</time>
      </trkpt>
      <trkpt lat="43.7749" lon="7.49593">
        <ele>16.362248</ele>
        <time>2022-10-18T15:43:33.152Z</time>
      </trkpt>
      <trkpt lat="43.77515" lon="7.49562">
        <ele>17.560162</ele>
        <time>2022-10-18T15:44:16.898Z</time>
      </trkpt>
      <trkpt lat="43.77553" lon="7.49517">
        <ele>19.346667</ele>
        <time>2022-10-18T15:45:22.021Z</time>
      </trkpt>
      <trkpt lat="43.77562" lon="7.49507">
        <ele>19.757386</ele>
        <time>2022-10-18T15:45:37.172Z</time>
      </trkpt>
      <trkpt lat="43.77577" lon="7.49535">
        <ele>20.648445</ele>
        <time>2022-10-18T15:46:09.748Z</time>
      </trkpt>
      <trkpt lat="43.77595" lon="7.49513">
        <ele>21.505562</ele>
        <time>2022-10-18T15:46:41.659Z</time>
      </trkpt>
      <trkpt lat="43.77615" lon="7.49547">
        <ele>23.914679</ele>
        <time>2022-10-18T15:47:28.983Z</time>
      </trkpt>
      <trkpt lat="43.77624" lon="7.49601">
        <ele>28.737697</ele>
        <time>2022-10-18T15:48:36.384Z</time>
      </trkpt>
      <trkpt lat="43.77634" lon="7.49622">
        <ele>30.876722</ele>
        <time>2022-10-18T15:49:03.939Z</time>
      </trkpt>
      <trkpt lat="43.77649" lon="7.49666">
        <ele>35.059508</ele>
        <time>2022-10-18T15:50:01.562Z</time>
      </trkpt>
      <trkpt lat="43.7768" lon="7.49677">
        <ele>38.969151</ele>
        <time>2022-10-18T15:51:04.801Z</time>
      </trkpt>
      <trkpt lat="43.7769" lon="7.49668">
        <ele>40.373069</ele>
        <time>2022-10-18T15:51:22.482Z</time>
      </trkpt>
      <trkpt lat="43.77704" lon="7.49669">
        <ele>41.952388</ele>
        <time>2022-10-18T15:52:00.961Z</time>
      </trkpt>
      <trkpt lat="43.77712" lon="7.49681">
        <ele>43.322263</ele>
        <time>2022-10-18T15:52:19.822Z</time>
      </trkpt>
      <trkpt lat="43.77748" lon="7.49681">
        <ele>49.108288</ele>
        <time>2022-10-18T15:53:41.698Z</time>
      </trkpt>
      <trkpt lat="43.77753" lon="7.49675">
        <ele>50.206752</ele>
        <time>2022-10-18T15:53:52.673Z</time>
      </trkpt>
      <trkpt lat="43.77754" lon="7.49681">
        <ele>50.828408</ele>
        <time>2022-10-18T15:53:58.654Z</time>
      </trkpt>
      <trkpt lat="43.77761" lon="7.49677">
        <ele>52.039821</ele>
        <time>2022-10-18T15:54:23.483Z</time>
      </trkpt>
      <trkpt lat="43.77763" lon="7.4968">
        <ele>52.600302</ele>
        <time>2022-10-18T15:54:32.887Z</time>
      </trkpt>
      <trkpt lat="43.77762" lon="7.49676">
        <ele>53.152038</ele>
        <time>2022-10-18T15:54:41.305Z</time>
      </trkpt>
      <trkpt lat="43.77771" lon="7.49682">
        <ele>54.64524</ele>
        <time>2022-10-18T15:54:55.947Z</time>
      </trkpt>
      <trkpt lat="43.77785" lon="7.49677">
        <ele>57.102366</ele>
        <time>2022-10-18T15:55:20.782Z</time>
      </trkpt>
      <trkpt lat="43.77788" lon="7.49682">
        <ele>57.841987</ele>
        <time>2022-10-18T15:55:37.857Z</time>
      </trkpt>
      <trkpt lat="43.77801" lon="7.49747">
        <ele>65.812107</ele>
        <time>2022-10-18T15:57:25.445Z</time>
      </trkpt>
      <trkpt lat="43.77805" lon="7.4975">
        <ele>66.509127</ele>
        <time>2022-10-18T15:57:34.281Z</time>
      </trkpt>
      <trkpt lat="43.77835" lon="7.49754">
        <ele>71.342947</ele>
        <time>2022-10-18T15:58:25.934Z</time>
      </trkpt>
      <trkpt lat="43.77813" lon="7.49853">
        <ele>80.028855</ele>
        <time>2022-10-18T16:00:35.429Z</time>
      </trkpt>
      <trkpt lat="43.77849" lon="7.49837">
        <ele>84.178966</ele>
        <time>2022-10-18T16:01:37.134Z</time>
      </trkpt>
      <trkpt lat="43.77851" lon="7.49836">
        <ele>84.486527</ele>
        <time>2022-10-18T16:01:43.317Z</time>
      </trkpt>
      <trkpt lat="43.77854" lon="7.49835">
        <ele>84.798571</ele>
        <time>2022-10-18T16:01:48.336Z</time>
      </trkpt>
      <trkpt lat="43.77861" lon="7.49868">
        <ele>87.504058</ele>
        <time>2022-10-18T16:02:26.256Z</time>
      </trkpt>
      <trkpt lat="43.77875" lon="7.49877">
        <ele>89.192576</ele>
        <time>2022-10-18T16:02:51.179Z</time>
      </trkpt>
      <trkpt lat="43.77909" lon="7.4986">
        <ele>93.014982</ele>
        <time>2022-10-18T16:03:46.304Z</time>
      </trkpt>
      <trkpt lat="43.77924" lon="7.4987">
        <ele>94.563057</ele>
        <time>2022-10-18T16:04:11.530Z</time>
      </trkpt>
      <trkpt lat="43.77957" lon="7.49853">
        <ele>97.749022</ele>
        <time>2022-10-18T16:05:08.842Z</time>
      </trkpt>
      <trkpt lat="43.77964" lon="7.49851">
        <ele>98.413792</ele>
        <time>2022-10-18T16:05:20.825Z</time>
      </trkpt>
      <trkpt lat="43.77962" lon="7.49846">
        <ele>98.831467</ele>
        <time>2022-10-18T16:05:31.204Z</time>
      </trkpt>
      <trkpt lat="43.78004" lon="7.4982">
        <ele>102.974387</ele>
        <time>2022-10-18T16:06:41.497Z</time>
      </trkpt>
      <trkpt lat="43.78015" lon="7.4983">
        <ele>104.198431</ele>
        <time>2022-10-18T16:07:00.375Z</time>
      </trkpt>
      <trkpt lat="43.78027" lon="7.49779">
        <ele>107.682462</ele>
        <time>2022-10-18T16:07:59.040Z</time>
      </trkpt>
      <trkpt lat="43.78047" lon="7.498">
        <ele>109.877414</ele>
        <time>2022-10-18T16:08:38.820Z</time>
      </trkpt>
      <trkpt lat="43.78101" lon="7.49777">
        <ele>114.818959</ele>
        <time>2022-10-18T16:10:10.137Z</time>
      </trkpt>
      <trkpt lat="43.78142" lon="7.49759">
        <ele>118.561593</ele>
        <time>2022-10-18T16:11:17.555Z</time>
      </trkpt>
      <trkpt lat="43.78174" lon="7.49759">
        <ele>121.312665</ele>
        <time>2022-10-18T16:12:05.733Z</time>
      </trkpt>
      <trkpt lat="43.78184" lon="7.49782">
        <ele>123.003274</ele>
        <time>2022-10-18T16:12:36.240Z</time>
      </trkpt>
      <trkpt lat="43.78206" lon="7.49879">
        <ele>127.982884</ele>
        <time>2022-10-18T16:14:25.629Z</time>
      </trkpt>
      <trkpt lat="43.78196" lon="7.49884">
        <ele>128.622986</ele>
        <time>2022-10-18T16:14:39.377Z</time>
      </trkpt>
      <trkpt lat="43.78216" lon="7.49991">
        <ele>133.642217</ele>
        <time>2022-10-18T16:16:38.340Z</time>
      </trkpt>
      <trkpt lat="43.78258" lon="7.49982">
        <ele>136.132409</ele>
        <time>2022-10-18T16:17:38.327Z</time>
      </trkpt>
      <trkpt lat="43.78261" lon="7.49989">
        <ele>136.383615</ele>
        <time>2022-10-18T16:17:47.104Z</time>
      </trkpt>
      <trkpt lat="43.78301" lon="7.49989">
        <ele>138.069533</ele>
        <time>2022-10-18T16:18:39.692Z</time>
      </trkpt>
      <trkpt lat="43.78328" lon="7.50001">
        <ele>139.26911</ele>
        <time>2022-10-18T16:19:16.945Z</time>
      </trkpt>
      <trkpt lat="43.78357" lon="7.50042">
        <ele>141.0259</ele>
        <time>2022-10-18T16:20:12.872Z</time>
      </trkpt>
      <trkpt lat="43.78406" lon="7.50055">
        <ele>143.14875</ele>
        <time>2022-10-18T16:21:20.940Z</time>
      </trkpt>
      <trkpt lat="43.78434" lon="7.50077">
        <ele>145.515743</ele>
        <time>2022-10-18T16:22:10.015Z</time>
      </trkpt>
      <trkpt lat="43.78449" lon="7.50074">
        <ele>146.69522</ele>
        <time>2022-10-18T16:22:31.182Z</time>
      </trkpt>
      <trkpt lat="43.78476" lon="7.50046">
        <ele>149.322065</ele>
        <time>2022-10-18T16:23:21.414Z</time>
      </trkpt>
      <trkpt lat="43.78486" lon="7.50048">
        <ele>150.128495</ele>
        <time>2022-10-18T16:23:37.170Z</time>
      </trkpt>
      <trkpt lat="43.78523" lon="7.50075">
        <ele>153.368345</ele>
        <time>2022-10-18T16:24:41.030Z</time>
      </trkpt>
      <trkpt lat="43.78553" lon="7.50068">
        <ele>155.784888</ele>
        <time>2022-10-18T16:25:29.389Z</time>
      </trkpt>
      <trkpt lat="43.78565" lon="7.50065">
        <ele>156.709698</ele>
        <time>2022-10-18T16:25:49.446Z</time>
      </trkpt>
      <trkpt lat="43.7859" lon="7.5007">
        <ele>158.665344</ele>
        <time>2022-10-18T16:26:28.656Z</time>
      </trkpt>
      <trkpt lat="43.78603" lon="7.50065">
        <ele>159.730424</ele>
        <time>2022-10-18T16:26:51.840Z</time>
      </trkpt>
      <trkpt lat="43.7868" lon="7.49988">
        <ele>167.055653</ele>
        <time>2022-10-18T16:29:21.290Z</time>
      </trkpt>
      <trkpt lat="43.78721" lon="7.4997">
        <ele>170.407808</ele>
        <time>2022-10-18T16:30:22.541Z</time>
      </trkpt>
      <trkpt lat="43.78755" lon="7.49955">
        <ele>172.0414</ele>
        <time>2022-10-18T16:31:10.144Z</time>
      </trkpt>
      <trkpt lat="43.78825" lon="7.49882">
        <ele>174.791522</ele>
        <time>2022-10-18T16:33:04.759Z</time>
      </trkpt>
      <trkpt lat="43.78845" lon="7.49877">
        <ele>175.430975</ele>
        <time>2022-10-18T16:33:30.518Z</time>
      </trkpt>
      <trkpt lat="43.78891" lon="7.49877">
        <ele>176.850779</ele>
        <time>2022-10-18T16:34:31.560Z</time>
      </trkpt>
      <trkpt lat="43.78955" lon="7.49837">
        <ele>180.888689</ele>
        <time>2022-10-18T16:36:07.656Z</time>
      </trkpt>
      <trkpt lat="43.79" lon="7.49839">
        <ele>183.486244</ele>
        <time>2022-10-18T16:37:08.648Z</time>
      </trkpt>
      <trkpt lat="43.79013" lon="7.49835">
        <ele>184.245917</ele>
        <time>2022-10-18T16:37:26.352Z</time>
      </trkpt>
      <trkpt lat="43.79025" lon="7.49834">
        <ele>184.959157</ele>
        <time>2022-10-18T16:37:50.835Z</time>
      </trkpt>
      <trkpt lat="43.7908" lon="7.49797">
        <ele>189.362158</ele>
        <time>2022-10-18T16:39:25.876Z</time>
      </trkpt>
      <trkpt lat="43.79101" lon="7.49793">
        <ele>191.565161</ele>
        <time>2022-10-18T16:40:01.461Z</time>
      </trkpt>
      <trkpt lat="43.79145" lon="7.49801">
        <ele>196.083315</ele>
        <time>2022-10-18T16:41:12.888Z</time>
      </trkpt>
      <trkpt lat="43.79154" lon="7.49833">
        <ele>198.598994</ele>
        <time>2022-10-18T16:41:57.760Z</time>
      </trkpt>
      <trkpt lat="43.79164" lon="7.49846">
        <ele>200.056929</ele>
        <time>2022-10-18T16:42:20.653Z</time>
      </trkpt>
      <trkpt lat="43.79184" lon="7.49854">
        <ele>202.149644</ele>
        <time>2022-10-18T16:42:52.066Z</time>
      </trkpt>
      <trkpt lat="43.79245" lon="7.49811">
        <ele>207.894547</ele>
        <time>2022-10-18T16:44:40.883Z</time>
      </trkpt>
      <trkpt lat="43.79276" lon="7.498">
        <ele>209.944473</ele>
        <time>2022-10-18T16:45:31.861Z</time>
      </trkpt>
      <trkpt lat="43.79299" lon="7.49779">
        <ele>211.707047</ele>
        <time>2022-10-18T16:46:14.553Z</time>
      </trkpt>
      <trkpt lat="43.79334" lon="7.49771">
        <ele>213.908585</ele>
        <time>2022-10-18T16:47:01.956Z</time>
      </trkpt>
      <trkpt lat="43.79387" lon="7.49747">
        <ele>217.339352</ele>
        <time>2022-10-18T16:48:15.760Z</time>
      </trkpt>
      <trkpt lat="43.79485" lon="7.49698">
        <ele>221.541866</ele>
        <time>2022-10-18T16:50:36.956Z</time>
      </trkpt>
      <trkpt lat="43.79533" lon="7.49667">
        <ele>223.662996</ele>
        <time>2022-10-18T16:51:45.227Z</time>
      </trkpt>
      <trkpt lat="43.79571" lon="7.49655">
        <ele>226.140142</ele>
        <time>2022-10-18T16:52:42.991Z</time>
      </trkpt>
      <trkpt lat="43.79574" lon="7.49643">
        <ele>226.94837</ele>
        <time>2022-10-18T16:52:59.596Z</time>
      </trkpt>
      <trkpt lat="43.79579" lon="7.49647">
        <ele>227.530797</ele>
        <time>2022-10-18T16:53:11.954Z</time>
      </trkpt>
      <trkpt lat="43.79639" lon="7.49643">
        <ele>232.734534</ele>
        <time>2022-10-18T16:54:41.530Z</time>
      </trkpt>
      <trkpt lat="43.7965" lon="7.49639">
        <ele>233.76194</ele>
        <time>2022-10-18T16:55:04.344Z</time>
      </trkpt>
      <trkpt lat="43.79658" lon="7.49616">
        <ele>235.383448</ele>
        <time>2022-10-18T16:55:30.211Z</time>
      </trkpt>
      <trkpt lat="43.79663" lon="7.49615">
        <ele>235.838839</ele>
        <time>2022-10-18T16:55:41.547Z</time>
      </trkpt>
      <trkpt lat="43.79668" lon="7.49598">
        <ele>236.987321</ele>
        <time>2022-10-18T16:56:08.589Z</time>
      </trkpt>
      <trkpt lat="43.79678" lon="7.49586">
        <ele>238.149082</ele>
        <time>2022-10-18T16:56:27.237Z</time>
      </trkpt>
      <trkpt lat="43.79751" lon="7.49548">
        <ele>245.94307</ele>
        <time>2022-10-18T16:58:33.483Z</time>
      </trkpt>
      <trkpt lat="43.79765" lon="7.49545">
        <ele>247.426105</ele>
        <time>2022-10-18T16:59:01.065Z</time>
      </trkpt>
      <trkpt lat="43.79781" lon="7.49542">
        <ele>249.120292</ele>
        <time>2022-10-18T16:59:26.350Z</time>
      </trkpt>
      <trkpt lat="43.79827" lon="7.49545">
        <ele>254.027375</ele>
        <time>2022-10-18T17:00:42.873Z</time>
      </trkpt>
      <trkpt lat="43.79866" lon="7.49555">
        <ele>258.178048</ele>
        <time>2022-10-18T17:01:45.755Z</time>
      </trkpt>
      <trkpt lat="43.79907" lon="7.49569">
        <ele>263.14295</ele>
        <time>2022-10-18T17:02:53.181Z</time>
      </trkpt>
      <trkpt lat="43.79916" lon="7.4958">
        <ele>264.542367</ele>
        <time>2022-10-18T17:03:11.868Z</time>
      </trkpt>
      <trkpt lat="43.79922" lon="7.49578">
        <ele>265.29813</ele>
        <time>2022-10-18T17:03:22.024Z</time>
      </trkpt>
      <trkpt lat="43.7994" lon="7.49613">
        <ele>269.020104</ele>
        <time>2022-10-18T17:04:17.776Z</time>
      </trkpt>
      <trkpt lat="43.79942" lon="7.49622">
        <ele>269.778125</ele>
        <time>2022-10-18T17:04:27.548Z</time>
      </trkpt>
      <trkpt lat="43.79953" lon="7.49624">
        <ele>271.092288</ele>
        <time>2022-10-18T17:04:43.854Z</time>
      </trkpt>
      <trkpt lat="43.79989" lon="7.49651">
        <ele>275.927991</ele>
        <time>2022-10-18T17:05:56.277Z</time>
      </trkpt>
      <trkpt lat="43.80034" lon="7.49667">
        <ele>281.793408</ele>
        <time>2022-10-18T17:07:34.592Z</time>
      </trkpt>
      <trkpt lat="43.80061" lon="7.49664">
        <ele>285.979222</ele>
        <time>2022-10-18T17:08:19.104Z</time>
      </trkpt>
      <trkpt lat="43.80067" lon="7.49655">
        <ele>287.3033</ele>
        <time>2022-10-18T17:08:41.335Z</time>
      </trkpt>
      <trkpt lat="43.80065" lon="7.49676">
        <ele>289.625053</ele>
        <time>2022-10-18T17:09:05.869Z</time>
      </trkpt>
      <trkpt lat="43.80074" lon="7.49678">
        <ele>290.955951</ele>
        <time>2022-10-18T17:09:20.705Z</time>
      </trkpt>
      <trkpt lat="43.80085" lon="7.49656">
        <ele>293.92388</ele>
        <time>2022-10-18T17:09:59.725Z</time>
      </trkpt>
      <trkpt lat="43.801" lon="7.49648">
        <ele>296.410139</ele>
        <time>2022-10-18T17:10:28.218Z</time>
      </trkpt>
      <trkpt lat="43.80094" lon="7.49672">
        <ele>299.227224</ele>
        <time>2022-10-18T17:11:07.038Z</time>
      </trkpt>
      <trkpt lat="43.80098" lon="7.49677">
        <ele>300.078177</ele>
        <time>2022-10-18T17:11:16.596Z</time>
      </trkpt>
      <trkpt lat="43.80167" lon="7.49676">
        <ele>310.707673</ele>
        <time>2022-10-18T17:13:46.553Z</time>
      </trkpt>
      <trkpt lat="43.80203" lon="7.49649">
        <ele>317.166426</ele>
        <time>2022-10-18T17:15:15.319Z</time>
      </trkpt>
      <trkpt lat="43.80222" lon="7.49643">
        <ele>320.30278</ele>
        <time>2022-10-18T17:16:00.055Z</time>
      </trkpt>
      <trkpt lat="43.8024" lon="7.49649">
        <ele>323.244072</ele>
        <time>2022-10-18T17:16:37.885Z</time>
      </trkpt>
      <trkpt lat="43.80342" lon="7.49657">
        <ele>337.772283</ele>
        <time>2022-10-18T17:19:52.773Z</time>
      </trkpt>
      <trkpt lat="43.80348" lon="7.4966">
        <ele>338.179739</ele>
        <time>2022-10-18T17:20:03.007Z</time>
      </trkpt>
      <trkpt lat="43.80352" lon="7.4965">
        <ele>338.717116</ele>
        <time>2022-10-18T17:20:18.114Z</time>
      </trkpt>
      <trkpt lat="43.80369" lon="7.49646">
        <ele>339.90787</ele>
        <time>2022-10-18T17:20:51.437Z</time>
      </trkpt>
      <trkpt lat="43.80372" lon="7.49646">
        <ele>340.103647</ele>
        <time>2022-10-18T17:20:56.822Z</time>
      </trkpt>
      <trkpt lat="43.80375" lon="7.49647">
        <ele>340.333366</ele>
        <time>2022-10-18T17:21:02.859Z</time>
      </trkpt>
      <trkpt lat="43.80377" lon="7.49647">
        <ele>340.460627</ele>
        <time>2022-10-18T17:21:05.751Z</time>
      </trkpt>
      <trkpt lat="43.80425" lon="7.49654">
        <ele>343.72384</ele>
        <time>2022-10-18T17:22:21.104Z</time>
      </trkpt>
      <trkpt lat="43.80466" lon="7.49658">
        <ele>346.490545</ele>
        <time>2022-10-18T17:23:15.384Z</time>
      </trkpt>
      <trkpt lat="43.80486" lon="7.49654">
        <ele>347.844279</ele>
        <time>2022-10-18T17:23:40.967Z</time>
      </trkpt>
      <trkpt lat="43.80501" lon="7.49651">
        <ele>348.593217</ele>
        <time>2022-10-18T17:23:59.020Z</time>
      </trkpt>
      <trkpt lat="43.80512" lon="7.49653">
        <ele>348.349921</ele>
        <time>2022-10-18T17:24:12.944Z</time>
      </trkpt>
      <trkpt lat="43.80537" lon="7.49674">
        <ele>347.706174</ele>
        <time>2022-10-18T17:24:49.931Z</time>
      </trkpt>
      <trkpt lat="43.80561" lon="7.49701">
        <ele>347.003876</ele>
        <time>2022-10-18T17:25:32.272Z</time>
      </trkpt>
      <trkpt lat="43.80571" lon="7.49746">
        <ele>346.257894</ele>
        <time>2022-10-18T17:26:15.438Z</time>
      </trkpt>
      <trkpt lat="43.80577" lon="7.4974">
        <ele>346.093309</ele>
        <time>2022-10-18T17:26:24.306Z</time>
      </trkpt>
      <trkpt lat="43.8058" lon="7.49744">
        <ele>346.004791</ele>
        <time>2022-10-18T17:26:30.215Z</time>
      </trkpt>
      <trkpt lat="43.80574" lon="7.49759">
        <ele>345.733691</ele>
        <time>2022-10-18T17:26:45.516Z</time>
      </trkpt>
      <trkpt lat="43.80607" lon="7.4975">
        <ele>344.987767</ele>
        <time>2022-10-18T17:27:27.114Z</time>
      </trkpt>
      <trkpt lat="43.80657" lon="7.49809">
        <ele>349.70424</ele>
        <time>2022-10-18T17:28:46.482Z</time>
      </trkpt>
      <trkpt lat="43.80659" lon="7.49829">
        <ele>351.141897</ele>
        <time>2022-10-18T17:29:07.070Z</time>
      </trkpt>
      <trkpt lat="43.80676" lon="7.49851">
        <ele>353.376562</ele>
        <time>2022-10-18T17:29:44.361Z</time>
      </trkpt>
      <trkpt lat="43.80747" lon="7.4987">
        <ele>360.571078</ele>
        <time>2022-10-18T17:32:00.883Z</time>
      </trkpt>
      <trkpt lat="43.80744" lon="7.49879">
        <ele>361.25693</ele>
        <time>2022-10-18T17:32:14.083Z</time>
      </trkpt>
      <trkpt lat="43.8072" lon="7.49886">
        <ele>365.328425</ele>
        <time>2022-10-18T17:33:09.677Z</time>
      </trkpt>
      <trkpt lat="43.80713" lon="7.4991">
        <ele>369.98384</ele>
        <time>2022-10-18T17:33:53.927Z</time>
      </trkpt>
      <trkpt lat="43.80723" lon="7.49916">
        <ele>372.621418</ele>
        <time>2022-10-18T17:34:31.303Z</time>
      </trkpt>
      <trkpt lat="43.80753" lon="7.49897">
        <ele>380.825184</ele>
        <time>2022-10-18T17:36:02.090Z</time>
      </trkpt>
      <trkpt lat="43.80767" lon="7.49895">
        <ele>384.053612</ele>
        <time>2022-10-18T17:36:37.398Z</time>
      </trkpt>
      <trkpt lat="43.80793" lon="7.49901">
        <ele>390.486908</ele>
        <time>2022-10-18T17:37:56.107Z</time>
      </trkpt>
      <trkpt lat="43.80838" lon="7.49933">
        <ele>402.737254</ele>
        <time>2022-10-18T17:40:14.077Z</time>
      </trkpt>
      <trkpt lat="43.80865" lon="7.49942">
        <ele>408.07098</ele>
        <time>2022-10-18T17:41:43.505Z</time>
      </trkpt>
      <trkpt lat="43.80918" lon="7.49946">
        <ele>416.021575</ele>
        <time>2022-10-18T17:43:53.918Z</time>
      </trkpt>
      <trkpt lat="43.80961" lon="7.49996">
        <ele>424.40571</ele>
        <time>2022-10-18T17:45:28.715Z</time>
      </trkpt>
      <trkpt lat="43.80979" lon="7.50028">
        <ele>428.682014</ele>
        <time>2022-10-18T17:46:08.073Z</time>
      </trkpt>
      <trkpt lat="43.80999" lon="7.50039">
        <ele>431.860091</ele>
        <time>2022-10-18T17:46:44.080Z</time>
      </trkpt>
      <trkpt lat="43.81008" lon="7.5">
        <ele>434.991146</ele>
        <time>2022-10-18T17:47:24.208Z</time>
      </trkpt>
      <trkpt lat="43.81023" lon="7.49972">
        <ele>437.347388</ele>
        <time>2022-10-18T17:48:00.210Z</time>
      </trkpt>
      <trkpt lat="43.81035" lon="7.49914">
        <ele>441.515008</ele>
        <time>2022-10-18T17:49:14.259Z</time>
      </trkpt>
      <trkpt lat="43.81046" lon="7.49896">
        <ele>443.16514</ele>
        <time>2022-10-18T17:49:35.529Z</time>
      </trkpt>
      <trkpt lat="43.81065" lon="7.49881">
        <ele>445.254753</ele>
        <time>2022-10-18T17:50:14.211Z</time>
      </trkpt>
      <trkpt lat="43.8109" lon="7.49872">
        <ele>447.665664</ele>
        <time>2022-10-18T17:50:47.025Z</time>
      </trkpt>
      <trkpt lat="43.8111" lon="7.49874">
        <ele>449.61447</ele>
        <time>2022-10-18T17:51:13.919Z</time>
      </trkpt>
      <trkpt lat="43.81138" lon="7.49873">
        <ele>456.782559</ele>
        <time>2022-10-18T17:52:17.703Z</time>
      </trkpt>
      <trkpt lat="43.81158" lon="7.49856">
        <ele>463.418267</ele>
        <time>2022-10-18T17:53:35.148Z</time>
      </trkpt>
      <trkpt lat="43.812" lon="7.49812">
        <ele>478.148333</ele>
        <time>2022-10-18T17:56:16.194Z</time>
      </trkpt>
      <trkpt lat="43.8123" lon="7.49761">
        <ele>491.405513</ele>
        <time>2022-10-18T17:59:05.400Z</time>
      </trkpt>
      <trkpt lat="43.81255" lon="7.49747">
        <ele>498.899762</ele>
        <time>2022-10-18T18:00:25.334Z</time>
      </trkpt>
      <trkpt lat="43.81271" lon="7.49751">
        <ele>503.623197</ele>
        <time>2022-10-18T18:01:25.801Z</time>
      </trkpt>
      <trkpt lat="43.81318" lon="7.4973">
        <ele>518.448436</ele>
        <time>2022-10-18T18:03:40.056Z</time>
      </trkpt>
      <trkpt lat="43.81338" lon="7.49731">
        <ele>524.297685</ele>
        <time>2022-10-18T18:04:50.695Z</time>
      </trkpt>
      <trkpt lat="43.81365" lon="7.49783">
        <ele>538.053586</ele>
        <time>2022-10-18T18:07:15.337Z</time>
      </trkpt>
      <trkpt lat="43.81372" lon="7.49806">
        <ele>543.502081</ele>
        <time>2022-10-18T18:08:15.836Z</time>
      </trkpt>
      <trkpt lat="43.81371" lon="7.49843">
        <ele>551.291404</ele>
        <time>2022-10-18T18:09:34.360Z</time>
      </trkpt>
      <trkpt lat="43.81375" lon="7.49854">
        <ele>553.852074</ele>
        <time>2022-10-18T18:10:00.890Z</time>
      </trkpt>
      <trkpt lat="43.81408" lon="7.49892">
        <ele>562.42187</ele>
        <time>2022-10-18T18:11:45.802Z</time>
      </trkpt>
      <trkpt lat="43.81427" lon="7.49898">
        <ele>566.265403</ele>
        <time>2022-10-18T18:12:28.527Z</time>
      </trkpt>
      <trkpt lat="43.81437" lon="7.49911">
        <ele>568.899635</ele>
        <time>2022-10-18T18:13:02.801Z</time>
      </trkpt>
      <trkpt lat="43.8147" lon="7.49973">
        <ele>579.937315</ele>
        <time>2022-10-18T18:14:59.351Z</time>
      </trkpt>
      <trkpt lat="43.81507" lon="7.50075">
        <ele>595.940537</ele>
        <time>2022-10-18T18:17:56.452Z</time>
      </trkpt>
      <trkpt lat="43.81558" lon="7.50071">
        <ele>605.614695</ele>
        <time>2022-10-18T18:19:52.277Z</time>
      </trkpt>
      <trkpt lat="43.81586" lon="7.50059">
        <ele>611.206487</ele>
        <time>2022-10-18T18:21:00.115Z</time>
      </trkpt>
      <trkpt lat="43.81605" lon="7.50061">
        <ele>614.724635</ele>
        <time>2022-10-18T18:21:43.253Z</time>
      </trkpt>
      <trkpt lat="43.81618" lon="7.50078">
        <ele>618.091619</ele>
        <time>2022-10-18T18:22:26.668Z</time>
      </trkpt>
      <trkpt lat="43.81652" lon="7.50145">
        <ele>628.24352</ele>
        <time>2022-10-18T18:24:46.090Z</time>
      </trkpt>
      <trkpt lat="43.81718" lon="7.5022">
        <ele>641.839184</ele>
        <time>2022-10-18T18:28:00.228Z</time>
      </trkpt>
      <trkpt lat="43.8174" lon="7.50252">
        <ele>646.848213</ele>
        <time>2022-10-18T18:28:56.393Z</time>
      </trkpt>
      <trkpt lat="43.81761" lon="7.50262">
        <ele>650.392654</ele>
        <time>2022-10-18T18:29:29.541Z</time>
      </trkpt>
      <trkpt lat="43.81778" lon="7.50286">
        <ele>652.506332</ele>
        <time>2022-10-18T18:30:18.079Z</time>
      </trkpt>
      <trkpt lat="43.81788" lon="7.50291">
        <ele>653.094138</ele>
        <time>2022-10-18T18:30:32.813Z</time>
      </trkpt>
      <trkpt lat="43.81827" lon="7.50275">
        <ele>655.355175</ele>
        <time>2022-10-18T18:31:32.096Z</time>
      </trkpt>
      <trkpt lat="43.81879" lon="7.50215">
        <ele>659.177244</ele>
        <time>2022-10-18T18:33:07.212Z</time>
      </trkpt>
      <trkpt lat="43.81904" lon="7.50174">
        <ele>661.315494</ele>
        <time>2022-10-18T18:33:58.297Z</time>
      </trkpt>
      <trkpt lat="43.81931" lon="7.50147">
        <ele>663.115595</ele>
        <time>2022-10-18T18:34:43.050Z</time>
      </trkpt>
      <trkpt lat="43.81953" lon="7.50149">
        <ele>664.240418</ele>
        <time>2022-10-18T18:35:14.350Z</time>
      </trkpt>
      <trkpt lat="43.81985" lon="7.50185">
        <ele>666.414766</ele>
        <time>2022-10-18T18:36:12.331Z</time>
      </trkpt>
      <trkpt lat="43.8201" lon="7.502">
        <ele>667.837471</ele>
        <time>2022-10-18T18:36:50.286Z</time>
      </trkpt>
      <trkpt lat="43.82075" lon="7.50215">
        <ele>671.64629</ele>
        <time>2022-10-18T18:38:26.250Z</time>
      </trkpt>
      <trkpt lat="43.821" lon="7.50205">
        <ele>674.540496</ele>
        <time>2022-10-18T18:39:07.495Z</time>
      </trkpt>
      <trkpt lat="43.82131" lon="7.50153">
        <ele>679.945061</ele>
        <time>2022-10-18T18:40:21.175Z</time>
      </trkpt>
      <trkpt lat="43.82166" lon="7.50118">
        <ele>684.726855</ele>
        <time>2022-10-18T18:41:28.839Z</time>
      </trkpt>
      <trkpt lat="43.82182" lon="7.50113">
        <ele>686.509638</ele>
        <time>2022-10-18T18:42:03.591Z</time>
      </trkpt>
      <trkpt lat="43.82207" lon="7.50116">
        <ele>689.343768</ele>
        <time>2022-10-18T18:42:47.155Z</time>
      </trkpt>
      <trkpt lat="43.82254" lon="7.50135">
        <ele>696.746437</ele>
        <time>2022-10-18T18:44:41.239Z</time>
      </trkpt>
      <trkpt lat="43.82326" lon="7.50179">
        <ele>710.244119</ele>
        <time>2022-10-18T18:47:50.888Z</time>
      </trkpt>
      <trkpt lat="43.82379" lon="7.5024">
        <ele>721.846992</ele>
        <time>2022-10-18T18:50:10.570Z</time>
      </trkpt>
      <trkpt lat="43.82387" lon="7.50252">
        <ele>722.333566</ele>
        <time>2022-10-18T18:50:30.217Z</time>
      </trkpt>
      <trkpt lat="43.82444" lon="7.50275">
        <ele>724.721636</ele>
        <time>2022-10-18T18:51:59.542Z</time>
      </trkpt>
      <trkpt lat="43.82451" lon="7.50274">
        <ele>725.026524</ele>
        <time>2022-10-18T18:52:08.844Z</time>
      </trkpt>
      <trkpt lat="43.8247" lon="7.50273">
        <ele>725.798715</ele>
        <time>2022-10-18T18:52:35.575Z</time>
      </trkpt>
      <trkpt lat="43.82513" lon="7.50299">
        <ele>727.694938</ele>
        <time>2022-10-18T18:53:31.987Z</time>
      </trkpt>
      <trkpt lat="43.82533" lon="7.50236">
        <ele>729.237445</ele>
        <time>2022-10-18T18:54:35.948Z</time>
      </trkpt>
      <trkpt lat="43.82541" lon="7.50232">
        <ele>729.312838</ele>
        <time>2022-10-18T18:54:46.625Z</time>
      </trkpt>
      <trkpt lat="43.82546" lon="7.5021">
        <ele>729.470112</ele>
        <time>2022-10-18T18:55:09.129Z</time>
      </trkpt>
      <trkpt lat="43.82543" lon="7.5017">
        <ele>729.740611</ele>
        <time>2022-10-18T18:55:44.732Z</time>
      </trkpt>
      <trkpt lat="43.82547" lon="7.50116">
        <ele>730.099816</ele>
        <time>2022-10-18T18:56:32.781Z</time>
      </trkpt>
      <trkpt lat="43.82566" lon="7.50046">
        <ele>730.601844</ele>
        <time>2022-10-18T18:57:44.239Z</time>
      </trkpt>
      <trkpt lat="43.8259" lon="7.49988">
        <ele>734.903264</ele>
        <time>2022-10-18T18:58:55.646Z</time>
      </trkpt>
      <trkpt lat="43.82609" lon="7.49926">
        <ele>741.435687</ele>
        <time>2022-10-18T19:00:23.192Z</time>
      </trkpt>
      <trkpt lat="43.82634" lon="7.49871">
        <ele>747.741178</ele>
        <time>2022-10-18T19:01:58.817Z</time>
      </trkpt>
      <trkpt lat="43.82635" lon="7.4983">
        <ele>751.665431</ele>
        <time>2022-10-18T19:03:00.867Z</time>
      </trkpt>
      <trkpt lat="43.82639" lon="7.4982">
        <ele>752.728216</ele>
        <time>2022-10-18T19:03:18.960Z</time>
      </trkpt>
      <trkpt lat="43.82644" lon="7.49808">
        <ele>754.067142</ele>
        <time>2022-10-18T19:03:40.056Z</time>
      </trkpt>
      <trkpt lat="43.82707" lon="7.49828">
        <ele>762.667671</ele>
        <time>2022-10-18T19:06:03.367Z</time>
      </trkpt>
      <trkpt lat="43.8274" lon="7.49853">
        <ele>767.78132</ele>
        <time>2022-10-18T19:07:22.462Z</time>
      </trkpt>
      <trkpt lat="43.82803" lon="7.49885">
        <ele>776.744256</ele>
        <time>2022-10-18T19:09:17.555Z</time>
      </trkpt>
      <trkpt lat="43.82825" lon="7.49902">
        <ele>778.601389</ele>
        <time>2022-10-18T19:09:53.616Z</time>
      </trkpt>
      <trkpt lat="43.82833" lon="7.49904">
        <ele>778.411243</ele>
        <time>2022-10-18T19:10:05.192Z</time>
      </trkpt>
      <trkpt lat="43.82852" lon="7.49893">
        <ele>777.911045</ele>
        <time>2022-10-18T19:10:31.450Z</time>
      </trkpt>
      <trkpt lat="43.82865" lon="7.49895">
        <ele>777.605442</ele>
        <time>2022-10-18T19:10:47.410Z</time>
      </trkpt>
      <trkpt lat="43.82893" lon="7.49914">
        <ele>776.851338</ele>
        <time>2022-10-18T19:11:26.765Z</time>
      </trkpt>
      <trkpt lat="43.82916" lon="7.49909">
        <ele>776.281351</ele>
        <time>2022-10-18T19:11:58.267Z</time>
      </trkpt>
      <trkpt lat="43.83011" lon="7.49813">
        <ele>772.517412</ele>
        <time>2022-10-18T19:14:40.480Z</time>
      </trkpt>
      <trkpt lat="43.83028" lon="7.49787">
        <ele>771.351165</ele>
        <time>2022-10-18T19:15:15.755Z</time>
      </trkpt>
      <trkpt lat="43.83034" lon="7.49785">
        <ele>771.057953</ele>
        <time>2022-10-18T19:15:24.459Z</time>
      </trkpt>
      <trkpt lat="43.8311" lon="7.49794">
        <ele>767.615661</ele>
        <time>2022-10-18T19:17:02.665Z</time>
      </trkpt>
      <trkpt lat="43.83134" lon="7.49787">
        <ele>766.481822</ele>
        <time>2022-10-18T19:17:33.537Z</time>
      </trkpt>
      <trkpt lat="43.83207" lon="7.4979">
        <ele>765.661991</ele>
        <time>2022-10-18T19:19:05.687Z</time>
      </trkpt>
      <trkpt lat="43.83313" lon="7.49832">
        <ele>764.692833</ele>
        <time>2022-10-18T19:21:18.572Z</time>
      </trkpt>
      <trkpt lat="43.8333" lon="7.49826">
        <ele>763.471745</ele>
        <time>2022-10-18T19:21:40.517Z</time>
      </trkpt>
      <trkpt lat="43.83379" lon="7.49854">
        <ele>759.388457</ele>
        <time>2022-10-18T19:22:54.421Z</time>
      </trkpt>
      <trkpt lat="43.83421" lon="7.49811">
        <ele>755.437283</ele>
        <time>2022-10-18T19:24:09.062Z</time>
      </trkpt>
      <trkpt lat="43.83435" lon="7.49806">
        <ele>754.335139</ele>
        <time>2022-10-18T19:24:29.888Z</time>
      </trkpt>
      <trkpt lat="43.83483" lon="7.49751">
        <ele>750.816122</ele>
        <time>2022-10-18T19:25:58.301Z</time>
      </trkpt>
      <trkpt lat="43.8349" lon="7.49726">
        <ele>750.597162</ele>
        <time>2022-10-18T19:26:25.098Z</time>
      </trkpt>
      <trkpt lat="43.83497" lon="7.49722">
        <ele>750.504539</ele>
        <time>2022-10-18T19:26:36.573Z</time>
      </trkpt>
      <trkpt lat="43.83539" lon="7.4966">
        <ele>749.803046</ele>
        <time>2022-10-18T19:27:59.112Z</time>
      </trkpt>
      <trkpt lat="43.83559" lon="7.49589">
        <ele>749.173608</ele>
        <time>2022-10-18T19:29:14.943Z</time>
      </trkpt>
      <trkpt lat="43.83611" lon="7.49566">
        <ele>755.885664</ele>
        <time>2022-10-18T19:30:44.156Z</time>
      </trkpt>
      <trkpt lat="43.83648" lon="7.49515">
        <ele>765.983678</ele>
        <time>2022-10-18T19:32:46.088Z</time>
      </trkpt>
      <trkpt lat="43.83663" lon="7.49484">
        <ele>771.039828</ele>
        <time>2022-10-18T19:33:47.550Z</time>
      </trkpt>
      <trkpt lat="43.83671" lon="7.49478">
        <ele>772.742902</ele>
        <time>2022-10-18T19:34:11.213Z</time>
      </trkpt>
      <trkpt lat="43.83676" lon="7.49485">
        <ele>774.173997</ele>
        <time>2022-10-18T19:34:30.317Z</time>
      </trkpt>
      <trkpt lat="43.83691" lon="7.4947">
        <ele>777.748338</ele>
        <time>2022-10-18T19:35:23.530Z</time>
      </trkpt>
      <trkpt lat="43.837" lon="7.49469">
        <ele>779.475558</ele>
        <time>2022-10-18T19:35:47.386Z</time>
      </trkpt>
      <trkpt lat="43.83698" lon="7.49475">
        <ele>780.478741</ele>
        <time>2022-10-18T19:36:00.790Z</time>
      </trkpt>
      <trkpt lat="43.8371" lon="7.49472">
        <ele>782.714871</ele>
        <time>2022-10-18T19:36:34.303Z</time>
      </trkpt>
      <trkpt lat="43.83726" lon="7.49487">
        <ele>786.847852</ele>
        <time>2022-10-18T19:37:28.434Z</time>
      </trkpt>
      <trkpt lat="43.83739" lon="7.49476">
        <ele>790.109274</ele>
        <time>2022-10-18T19:38:13.175Z</time>
      </trkpt>
      <trkpt lat="43.83738" lon="7.49488">
        <ele>792.005565</ele>
        <time>2022-10-18T19:38:40.958Z</time>
      </trkpt>
      <trkpt lat="43.83778" lon="7.49468">
        <ele>801.122507</ele>
        <time>2022-10-18T19:40:41.654Z</time>
      </trkpt>
      <trkpt lat="43.83794" lon="7.49471">
        <ele>804.555771</ele>
        <time>2022-10-18T19:41:18.723Z</time>
      </trkpt>
      <trkpt lat="43.83803" lon="7.49467">
        <ele>806.586755</ele>
        <time>2022-10-18T19:41:45.805Z</time>
      </trkpt>
      <trkpt lat="43.83807" lon="7.49458">
        <ele>808.206074</ele>
        <time>2022-10-18T19:42:00.895Z</time>
      </trkpt>
      <trkpt lat="43.83833" lon="7.49456">
        <ele>813.855169</ele>
        <time>2022-10-18T19:42:53.996Z</time>
      </trkpt>
      <trkpt lat="43.83847" lon="7.49444">
        <ele>817.376801</ele>
        <time>2022-10-18T19:43:23.950Z</time>
      </trkpt>
      <trkpt lat="43.83877" lon="7.49421">
        <ele>823.427977</ele>
        <time>2022-10-18T19:44:39.083Z</time>
      </trkpt>
      <trkpt lat="43.83912" lon="7.49418">
        <ele>827.819108</ele>
        <time>2022-10-18T19:45:42.629Z</time>
      </trkpt>
      <trkpt lat="43.83929" lon="7.49401">
        <ele>830.409044</ele>
        <time>2022-10-18T19:46:19.557Z</time>
      </trkpt>
      <trkpt lat="43.83959" lon="7.49394">
        <ele>834.17138</ele>
        <time>2022-10-18T19:47:11.690Z</time>
      </trkpt>
      <trkpt lat="43.83982" lon="7.49376">
        <ele>837.519063</ele>
        <time>2022-10-18T19:47:56.016Z</time>
      </trkpt>
      <trkpt lat="43.84009" lon="7.49343">
        <ele>841.944005</ele>
        <time>2022-10-18T19:48:55.034Z</time>
      </trkpt>
      <trkpt lat="43.8409" lon="7.49325">
        <ele>851.263343</ele>
        <time>2022-10-18T19:51:05.855Z</time>
      </trkpt>
      <trkpt lat="43.84135" lon="7.49327">
        <ele>856.227435</ele>
        <time>2022-10-18T19:52:20.589Z</time>
      </trkpt>
      <trkpt lat="43.84152" lon="7.49321">
        <ele>858.192043</ele>
        <time>2022-10-18T19:52:50.456Z</time>
      </trkpt>
      <trkpt lat="43.84173" lon="7.49292">
        <ele>861.407816</ele>
        <time>2022-10-18T19:53:38.771Z</time>
      </trkpt>
      <trkpt lat="43.842" lon="7.49286">
        <ele>864.516398</ele>
        <time>2022-10-18T19:54:28.257Z</time>
      </trkpt>
      <trkpt lat="43.84233" lon="7.4929">
        <ele>868.185679</ele>
        <time>2022-10-18T19:55:24.339Z</time>
      </trkpt>
      <trkpt lat="43.84266" lon="7.49303">
        <ele>872.020594</ele>
        <time>2022-10-18T19:56:22.008Z</time>
      </trkpt>
      <trkpt lat="43.84284" lon="7.49295">
        <ele>874.076569</ele>
        <time>2022-10-18T19:56:52.981Z</time>
      </trkpt>
      <trkpt lat="43.84297" lon="7.49278">
        <ele>876.13208</ele>
        <time>2022-10-18T19:57:22.403Z</time>
      </trkpt>
      <trkpt lat="43.84326" lon="7.49274">
        <ele>879.336646</ele>
        <time>2022-10-18T19:58:09.942Z</time>
      </trkpt>
      <trkpt lat="43.84336" lon="7.49287">
        <ele>880.848369</ele>
        <time>2022-10-18T19:58:33.040Z</time>
      </trkpt>
      <trkpt lat="43.84347" lon="7.49269">
        <ele>882.780222</ele>
        <time>2022-10-18T19:59:01.236Z</time>
      </trkpt>
      <trkpt lat="43.84382" lon="7.49168">
        <ele>891.771752</ele>
        <time>2022-10-18T20:01:09.514Z</time>
      </trkpt>
      <trkpt lat="43.84398" lon="7.49151">
        <ele>894.03884</ele>
        <time>2022-10-18T20:01:42.571Z</time>
      </trkpt>
      <trkpt lat="43.84413" lon="7.49177">
        <ele>896.726469</ele>
        <time>2022-10-18T20:02:20.727Z</time>
      </trkpt>
      <trkpt lat="43.84422" lon="7.49178">
        <ele>897.791696</ele>
        <time>2022-10-18T20:02:35.666Z</time>
      </trkpt>
      <trkpt lat="43.84431" lon="7.49167">
        <ele>899.060152</ele>
        <time>2022-10-18T20:02:53.708Z</time>
      </trkpt>
      <trkpt lat="43.84431" lon="7.49178">
        <ele>899.972375</ele>
        <time>2022-10-18T20:03:06.204Z</time>
      </trkpt>
      <trkpt lat="43.84431" lon="7.49186">
        <ele>900.610173</ele>
        <time>2022-10-18T20:03:15.416Z</time>
      </trkpt>
      <trkpt lat="43.84449" lon="7.49196">
        <ele>902.744895</ele>
        <time>2022-10-18T20:03:49.774Z</time>
      </trkpt>
      <trkpt lat="43.84506" lon="7.49135">
        <ele>914.519483</ele>
        <time>2022-10-18T20:06:15.638Z</time>
      </trkpt>
      <trkpt lat="43.84523" lon="7.49123">
        <ele>917.996211</ele>
        <time>2022-10-18T20:06:59.361Z</time>
      </trkpt>
      <trkpt lat="43.84545" lon="7.49091">
        <ele>923.440651</ele>
        <time>2022-10-18T20:08:11.560Z</time>
      </trkpt>
      <trkpt lat="43.84629" lon="7.49056">
        <ele>938.803984</ele>
        <time>2022-10-18T20:11:33.324Z</time>
      </trkpt>
      <trkpt lat="43.84657" lon="7.49003">
        <ele>947.082664</ele>
        <time>2022-10-18T20:13:21.230Z</time>
      </trkpt>
      <trkpt lat="43.84712" lon="7.48984">
        <ele>956.945315</ele>
        <time>2022-10-18T20:15:25.459Z</time>
      </trkpt>
      <trkpt lat="43.84731" lon="7.48966">
        <ele>960.972428</ele>
        <time>2022-10-18T20:16:14.312Z</time>
      </trkpt>
      <trkpt lat="43.84738" lon="7.48939">
        <ele>964.550623</ele>
        <time>2022-10-18T20:16:55.492Z</time>
      </trkpt>
      <trkpt lat="43.84791" lon="7.48875">
        <ele>975.401737</ele>
        <time>2022-10-18T20:19:06.503Z</time>
      </trkpt>
      <trkpt lat="43.84868" lon="7.48807">
        <ele>989.035094</ele>
        <time>2022-10-18T20:21:56.546Z</time>
      </trkpt>
      <trkpt lat="43.84916" lon="7.48785">
        <ele>995.659681</ele>
        <time>2022-10-18T20:23:50.536Z</time>
      </trkpt>
      <trkpt lat="43.84926" lon="7.48762">
        <ele>997.574173</ele>
        <time>2022-10-18T20:24:32.990Z</time>
      </trkpt>
      <trkpt lat="43.84968" lon="7.48717">
        <ele>1002.67972</ele>
        <time>2022-10-18T20:26:17.046Z</time>
      </trkpt>
      <trkpt lat="43.84997" lon="7.48674">
        <ele>1006.823547</ele>
        <time>2022-10-18T20:27:24.649Z</time>
      </trkpt>
      <trkpt lat="43.85013" lon="7.48662">
        <ele>1008.549287</ele>
        <time>2022-10-18T20:27:49.239Z</time>
      </trkpt>
      <trkpt lat="43.85022" lon="7.48664">
        <ele>1009.501253</ele>
        <time>2022-10-18T20:28:02.085Z</time>
      </trkpt>
      <trkpt lat="43.85026" lon="7.48649">
        <ele>1010.669439</ele>
        <time>2022-10-18T20:28:17.188Z</time>
      </trkpt>
      <trkpt lat="43.85069" lon="7.48599">
        <ele>1005.927132</ele>
        <time>2022-10-18T20:29:29.079Z</time>
      </trkpt>
      <trkpt lat="43.85133" lon="7.48555">
        <ele>997.79149</ele>
        <time>2022-10-18T20:31:11.854Z</time>
      </trkpt>
      <trkpt lat="43.85163" lon="7.48527">
        <ele>993.632157</ele>
        <time>2022-10-18T20:32:18.453Z</time>
      </trkpt>
      <trkpt lat="43.85178" lon="7.48484">
        <ele>989.022254</ele>
        <time>2022-10-18T20:33:20.425Z</time>
      </trkpt>
      <trkpt lat="43.85206" lon="7.48465">
        <ele>983.296346</ele>
        <time>2022-10-18T20:34:18.413Z</time>
      </trkpt>
      <trkpt lat="43.85221" lon="7.48436">
        <ele>978.703879</ele>
        <time>2022-10-18T20:35:03.797Z</time>
      </trkpt>
      <trkpt lat="43.85192" lon="7.48373">
        <ele>969.027599</ele>
        <time>2022-10-18T20:36:34.320Z</time>
      </trkpt>
      <trkpt lat="43.85191" lon="7.48348">
        <ele>965.7762</ele>
        <time>2022-10-18T20:37:00.958Z</time>
      </trkpt>
      <trkpt lat="43.8515" lon="7.48263">
        <ele>952.447883</ele>
        <time>2022-10-18T20:38:53.960Z</time>
      </trkpt>
      <trkpt lat="43.85155" lon="7.48248">
        <ele>950.328636</ele>
        <time>2022-10-18T20:39:12.762Z</time>
      </trkpt>
      <trkpt lat="43.85197" lon="7.48221">
        <ele>942.171752</ele>
        <time>2022-10-18T20:40:25.623Z</time>
      </trkpt>
      <trkpt lat="43.85203" lon="7.48231">
        <ele>940.552734</ele>
        <time>2022-10-18T20:40:40.215Z</time>
      </trkpt>
      <trkpt lat="43.852" lon="7.48243">
        <ele>938.974306</ele>
        <time>2022-10-18T20:40:55.112Z</time>
      </trkpt>
      <trkpt lat="43.85213" lon="7.48246">
        <ele>936.654615</ele>
        <time>2022-10-18T20:41:16.738Z</time>
      </trkpt>
      <trkpt lat="43.85211" lon="7.4826">
        <ele>934.862104</ele>
        <time>2022-10-18T20:41:34.814Z</time>
      </trkpt>
      <trkpt lat="43.85239" lon="7.48255">
        <ele>929.960646</ele>
        <time>2022-10-18T20:42:21.540Z</time>
      </trkpt>
      <trkpt lat="43.85262" lon="7.48221">
        <ele>923.13782</ele>
        <time>2022-10-18T20:43:21.159Z</time>
      </trkpt>
      <trkpt lat="43.85343" lon="7.48183">
        <ele>902.860232</ele>
        <time>2022-10-18T20:46:04.517Z</time>
      </trkpt>
      <trkpt lat="43.85361" lon="7.48156">
        <ele>896.693026</ele>
        <time>2022-10-18T20:46:59.612Z</time>
      </trkpt>
      <trkpt lat="43.85396" lon="7.48138">
        <ele>887.715879</ele>
        <time>2022-10-18T20:48:17.885Z</time>
      </trkpt>
      <trkpt lat="43.85414" lon="7.48141">
        <ele>883.637127</ele>
        <time>2022-10-18T20:48:51.171Z</time>
      </trkpt>
      <trkpt lat="43.85443" lon="7.48131">
        <ele>878.327221</ele>
        <time>2022-10-18T20:49:48.635Z</time>
      </trkpt>
      <trkpt lat="43.85466" lon="7.48134">
        <ele>874.428277</ele>
        <time>2022-10-18T20:50:30.476Z</time>
      </trkpt>
      <trkpt lat="43.85515" lon="7.48094">
        <ele>864.417982</ele>
        <time>2022-10-18T20:52:00.552Z</time>
      </trkpt>
      <trkpt lat="43.85628" lon="7.48036">
        <ele>847.749064</ele>
        <time>2022-10-18T20:55:02.022Z</time>
      </trkpt>
      <trkpt lat="43.85654" lon="7.48001">
        <ele>844.419218</ele>
        <time>2022-10-18T20:55:52.702Z</time>
      </trkpt>
      <trkpt lat="43.85658" lon="7.47988">
        <ele>843.456632</ele>
        <time>2022-10-18T20:56:07.339Z</time>
      </trkpt>
      <trkpt lat="43.85647" lon="7.47973">
        <ele>842.003387</ele>
        <time>2022-10-18T20:56:28.875Z</time>
      </trkpt>
      <trkpt lat="43.85632" lon="7.47933">
        <ele>839.038488</ele>
        <time>2022-10-18T20:57:13.115Z</time>
      </trkpt>
      <trkpt lat="43.85604" lon="7.47904">
        <ele>835.829456</ele>
        <time>2022-10-18T20:58:01.348Z</time>
      </trkpt>
      <trkpt lat="43.85595" lon="7.47857">
        <ele>833.689012</ele>
        <time>2022-10-18T20:58:48.839Z</time>
      </trkpt>
      <trkpt lat="43.85609" lon="7.47831">
        <ele>832.296436</ele>
        <time>2022-10-18T20:59:19.906Z</time>
      </trkpt>
      <trkpt lat="43.85634" lon="7.47835">
        <ele>830.738778</ele>
        <time>2022-10-18T20:59:53.641Z</time>
      </trkpt>
      <trkpt lat="43.85692" lon="7.4781">
        <ele>827.055579</ele>
        <time>2022-10-18T21:01:14.753Z</time>
      </trkpt>
      <trkpt lat="43.85844" lon="7.47659">
        <ele>814.006737</ele>
        <time>2022-10-18T21:05:28.062Z</time>
      </trkpt>
      <trkpt lat="43.85925" lon="7.47595">
        <ele>806.373575</ele>
        <time>2022-10-18T21:07:42.333Z</time>
      </trkpt>
      <trkpt lat="43.85952" lon="7.47552">
        <ele>802.811653</ele>
        <time>2022-10-18T21:08:42.649Z</time>
      </trkpt>
      <trkpt lat="43.86005" lon="7.4759">
        <ele>797.608326</ele>
        <time>2022-10-18T21:10:05.456Z</time>
      </trkpt>
      <trkpt lat="43.86021" lon="7.47596">
        <ele>796.542035</ele>
        <time>2022-10-18T21:10:28.598Z</time>
      </trkpt>
      <trkpt lat="43.86044" lon="7.47626">
        <ele>796.314376</ele>
        <time>2022-10-18T21:11:09.441Z</time>
      </trkpt>
      <trkpt lat="43.86073" lon="7.47676">
        <ele>795.980631</ele>
        <time>2022-10-18T21:12:08.862Z</time>
      </trkpt>
      <trkpt lat="43.86108" lon="7.47702">
        <ele>795.690046</ele>
        <time>2022-10-18T21:12:57.292Z</time>
      </trkpt>
      <trkpt lat="43.86167" lon="7.47709">
        <ele>795.260142</ele>
        <time>2022-10-18T21:14:16.233Z</time>
      </trkpt>
      <trkpt lat="43.86217" lon="7.47708">
        <ele>794.552237</ele>
        <time>2022-10-18T21:15:30.575Z</time>
      </trkpt>
      <trkpt lat="43.86256" lon="7.47689">
        <ele>793.963507</ele>
        <time>2022-10-18T21:16:25.627Z</time>
      </trkpt>
      <trkpt lat="43.86267" lon="7.47681">
        <ele>793.789699</ele>
        <time>2022-10-18T21:16:40.846Z</time>
      </trkpt>
      <trkpt lat="43.86264" lon="7.47655">
        <ele>793.528466</ele>
        <time>2022-10-18T21:17:04.206Z</time>
      </trkpt>
      <trkpt lat="43.86308" lon="7.4768">
        <ele>792.862034</ele>
        <time>2022-10-18T21:18:09.518Z</time>
      </trkpt>
      <trkpt lat="43.86306" lon="7.47659">
        <ele>791.697058</ele>
        <time>2022-10-18T21:18:31.597Z</time>
      </trkpt>
      <trkpt lat="43.8632" lon="7.4767">
        <ele>788.925975</ele>
        <time>2022-10-18T21:18:54.078Z</time>
      </trkpt>
      <trkpt lat="43.86323" lon="7.47662">
        <ele>787.876981</ele>
        <time>2022-10-18T21:19:03.451Z</time>
      </trkpt>
      <trkpt lat="43.86438" lon="7.47708">
        <ele>767.777786</ele>
        <time>2022-10-18T21:22:24.391Z</time>
      </trkpt>
      <trkpt lat="43.86435" lon="7.47681">
        <ele>764.583828</ele>
        <time>2022-10-18T21:22:54.869Z</time>
      </trkpt>
      <trkpt lat="43.86525" lon="7.47673">
        <ele>746.965438</ele>
        <time>2022-10-18T21:25:41.262Z</time>
      </trkpt>
      <trkpt lat="43.86531" lon="7.47654">
        <ele>743.934209</ele>
        <time>2022-10-18T21:26:03.169Z</time>
      </trkpt>
      <trkpt lat="43.86545" lon="7.47646">
        <ele>740.972309</ele>
        <time>2022-10-18T21:26:31.208Z</time>
      </trkpt>
      <trkpt lat="43.86556" lon="7.47645">
        <ele>738.783369</ele>
        <time>2022-10-18T21:26:48.396Z</time>
      </trkpt>
      <trkpt lat="43.8656" lon="7.47648">
        <ele>737.841565</ele>
        <time>2022-10-18T21:26:55.248Z</time>
      </trkpt>
      <trkpt lat="43.86556" lon="7.47655">
        <ele>736.647193</ele>
        <time>2022-10-18T21:27:03.819Z</time>
      </trkpt>
      <trkpt lat="43.86569" lon="7.4765">
        <ele>734.00283</ele>
        <time>2022-10-18T21:27:29.996Z</time>
      </trkpt>
      <trkpt lat="43.8657" lon="7.47656">
        <ele>733.123268</ele>
        <time>2022-10-18T21:27:38.585Z</time>
      </trkpt>
      <trkpt lat="43.86673" lon="7.47644">
        <ele>711.427361</ele>
        <time>2022-10-18T21:30:44.989Z</time>
      </trkpt>
      <trkpt lat="43.86695" lon="7.47631">
        <ele>706.26669</ele>
        <time>2022-10-18T21:31:26.596Z</time>
      </trkpt>
      <trkpt lat="43.86722" lon="7.47606">
        <ele>699.146203</ele>
        <time>2022-10-18T21:32:27.354Z</time>
      </trkpt>
      <trkpt lat="43.86763" lon="7.4756">
        <ele>687.788242</ele>
        <time>2022-10-18T21:34:03.870Z</time>
      </trkpt>
      <trkpt lat="43.86785" lon="7.47524">
        <ele>680.92729</ele>
        <time>2022-10-18T21:35:07.896Z</time>
      </trkpt>
      <trkpt lat="43.86818" lon="7.47505">
        <ele>673.623065</ele>
        <time>2022-10-18T21:36:17.749Z</time>
      </trkpt>
      <trkpt lat="43.86866" lon="7.47497">
        <ele>663.861314</ele>
        <time>2022-10-18T21:37:42.508Z</time>
      </trkpt>
      <trkpt lat="43.86979" lon="7.4751">
        <ele>642.126696</ele>
        <time>2022-10-18T21:40:41.581Z</time>
      </trkpt>
      <trkpt lat="43.86994" lon="7.47502">
        <ele>639.121825</ele>
        <time>2022-10-18T21:41:09.386Z</time>
      </trkpt>
      <trkpt lat="43.87007" lon="7.47482">
        <ele>635.66997</ele>
        <time>2022-10-18T21:41:41.191Z</time>
      </trkpt>
      <trkpt lat="43.87017" lon="7.47452">
        <ele>631.365115</ele>
        <time>2022-10-18T21:42:24.107Z</time>
      </trkpt>
      <trkpt lat="43.87027" lon="7.47445">
        <ele>629.37954</ele>
        <time>2022-10-18T21:42:42.266Z</time>
      </trkpt>
      <trkpt lat="43.87038" lon="7.47426">
        <ele>626.128328</ele>
        <time>2022-10-18T21:43:13.995Z</time>
      </trkpt>
      <trkpt lat="43.8706" lon="7.47376">
        <ele>618.603794</ele>
        <time>2022-10-18T21:44:22.203Z</time>
      </trkpt>
      <trkpt lat="43.87078" lon="7.47364">
        <ele>615.669367</ele>
        <time>2022-10-18T21:44:54.361Z</time>
      </trkpt>
      <trkpt lat="43.87109" lon="7.47342">
        <ele>610.762926</ele>
        <time>2022-10-18T21:45:47.827Z</time>
      </trkpt>
      <trkpt lat="43.87121" lon="7.47331">
        <ele>608.788097</ele>
        <time>2022-10-18T21:46:10.550Z</time>
      </trkpt>
      <trkpt lat="43.87127" lon="7.47316">
        <ele>607.063422</ele>
        <time>2022-10-18T21:46:28.568Z</time>
      </trkpt>
      <trkpt lat="43.87139" lon="7.47249">
        <ele>599.875375</ele>
        <time>2022-10-18T21:47:46.151Z</time>
      </trkpt>
      <trkpt lat="43.87137" lon="7.47144">
        <ele>590.96204</ele>
        <time>2022-10-18T21:49:37.554Z</time>
      </trkpt>
      <trkpt lat="43.87129" lon="7.4707">
        <ele>586.5733</ele>
        <time>2022-10-18T21:50:50.964Z</time>
      </trkpt>
      <trkpt lat="43.87134" lon="7.47006">
        <ele>582.783489</ele>
        <time>2022-10-18T21:51:54.804Z</time>
      </trkpt>
      <trkpt lat="43.87128" lon="7.46971">
        <ele>580.668841</ele>
        <time>2022-10-18T21:52:30.030Z</time>
      </trkpt>
      <trkpt lat="43.8713" lon="7.46956">
        <ele>579.768161</ele>
        <time>2022-10-18T21:52:45.599Z</time>
      </trkpt>
      <trkpt lat="43.87153" lon="7.46938">
        <ele>577.479426</ele>
        <time>2022-10-18T21:53:21.268Z</time>
      </trkpt>
      <trkpt lat="43.87257" lon="7.46902">
        <ele>567.638344</ele>
        <time>2022-10-18T21:55:51.446Z</time>
      </trkpt>
      <trkpt lat="43.87288" lon="7.46869">
        <ele>564.047028</ele>
        <time>2022-10-18T21:56:48.129Z</time>
      </trkpt>
      <trkpt lat="43.87335" lon="7.46801">
        <ele>554.548355</ele>
        <time>2022-10-18T21:58:28.560Z</time>
      </trkpt>
      <trkpt lat="43.87338" lon="7.46779">
        <ele>551.877355</ele>
        <time>2022-10-18T21:58:53.884Z</time>
      </trkpt>
      <trkpt lat="43.87347" lon="7.46759">
        <ele>549.274203</ele>
        <time>2022-10-18T21:59:18.789Z</time>
      </trkpt>
      <trkpt lat="43.87396" lon="7.46721">
        <ele>540.22913</ele>
        <time>2022-10-18T22:00:47.613Z</time>
      </trkpt>
      <trkpt lat="43.87402" lon="7.46671">
        <ele>534.372365</ele>
        <time>2022-10-18T22:01:55.770Z</time>
      </trkpt>
      <trkpt lat="43.87443" lon="7.46519">
        <ele>510.649957</ele>
        <time>2022-10-18T22:05:27.764Z</time>
      </trkpt>
      <trkpt lat="43.87443" lon="7.46486">
        <ele>505.746047</ele>
        <time>2022-10-18T22:06:12.021Z</time>
      </trkpt>
      <trkpt lat="43.87418" lon="7.46424">
        <ele>495.635042</ele>
        <time>2022-10-18T22:07:36.949Z</time>
      </trkpt>
      <trkpt lat="43.87416" lon="7.46409">
        <ele>494.118515</ele>
        <time>2022-10-18T22:07:56.520Z</time>
      </trkpt>
      <trkpt lat="43.87421" lon="7.46376">
        <ele>490.739243</ele>
        <time>2022-10-18T22:08:35.874Z</time>
      </trkpt>
      <trkpt lat="43.87421" lon="7.46299">
        <ele>483.133235</ele>
        <time>2022-10-18T22:10:05.227Z</time>
      </trkpt>
      <trkpt lat="43.87414" lon="7.46258">
        <ele>479.032096</ele>
        <time>2022-10-18T22:10:47.497Z</time>
      </trkpt>
      <trkpt lat="43.87416" lon="7.46181">
        <ele>471.463661</ele>
        <time>2022-10-18T22:12:05.534Z</time>
      </trkpt>
      <trkpt lat="43.87413" lon="7.46168">
        <ele>470.412512</ele>
        <time>2022-10-18T22:12:19.992Z</time>
      </trkpt>
      <trkpt lat="43.87387" lon="7.46146">
        <ele>467.237487</ele>
        <time>2022-10-18T22:13:01.352Z</time>
      </trkpt>
      <trkpt lat="43.87362" lon="7.46138">
        <ele>464.504879</ele>
        <time>2022-10-18T22:13:38.422Z</time>
      </trkpt>
      <trkpt lat="43.87326" lon="7.46105">
        <ele>459.930807</ele>
        <time>2022-10-18T22:14:42.051Z</time>
      </trkpt>
      <trkpt lat="43.87324" lon="7.46092">
        <ele>458.892234</ele>
        <time>2022-10-18T22:14:57.367Z</time>
      </trkpt>
      <trkpt lat="43.87329" lon="7.4608">
        <ele>457.817394</ele>
        <time>2022-10-18T22:15:11.826Z</time>
      </trkpt>
      <trkpt lat="43.87372" lon="7.46047">
        <ele>452.537181</ele>
        <time>2022-10-18T22:16:23.807Z</time>
      </trkpt>
      <trkpt lat="43.874" lon="7.46009">
        <ele>447.681955</ele>
        <time>2022-10-18T22:17:21.043Z</time>
      </trkpt>
      <trkpt lat="43.87429" lon="7.45985">
        <ele>443.555256</ele>
        <time>2022-10-18T22:18:10.241Z</time>
      </trkpt>
      <trkpt lat="43.87438" lon="7.45962">
        <ele>441.21697</ele>
        <time>2022-10-18T22:18:39.837Z</time>
      </trkpt>
      <trkpt lat="43.87452" lon="7.45865">
        <ele>432.415703</ele>
        <time>2022-10-18T22:20:27.841Z</time>
      </trkpt>
      <trkpt lat="43.87452" lon="7.45779">
        <ele>425.81877</ele>
        <time>2022-10-18T22:21:58.521Z</time>
      </trkpt>
      <trkpt lat="43.87446" lon="7.45745">
        <ele>423.30446</ele>
        <time>2022-10-18T22:22:34.203Z</time>
      </trkpt>
      <trkpt lat="43.87427" lon="7.45696">
        <ele>419.247417</ele>
        <time>2022-10-18T22:23:31.039Z</time>
      </trkpt>
      <trkpt lat="43.87442" lon="7.45664">
        <ele>416.527037</ele>
        <time>2022-10-18T22:24:09.640Z</time>
      </trkpt>
      <trkpt lat="43.8746" lon="7.4565">
        <ele>414.454064</ele>
        <time>2022-10-18T22:24:38.888Z</time>
      </trkpt>
      <trkpt lat="43.87467" lon="7.45637">
        <ele>413.299409</ele>
        <time>2022-10-18T22:24:55.252Z</time>
      </trkpt>
      <trkpt lat="43.87508" lon="7.45511">
        <ele>402.372708</ele>
        <time>2022-10-18T22:27:20.386Z</time>
      </trkpt>
      <trkpt lat="43.87516" lon="7.45441">
        <ele>396.741482</ele>
        <time>2022-10-18T22:28:34.913Z</time>
      </trkpt>
      <trkpt lat="43.87519" lon="7.4543">
        <ele>395.851475</ele>
        <time>2022-10-18T22:28:46.600Z</time>
      </trkpt>
      <trkpt lat="43.87524" lon="7.45427">
        <ele>395.262251</ele>
        <time>2022-10-18T22:28:55.022Z</time>
      </trkpt>
      <trkpt lat="43.87555" lon="7.45442">
        <ele>391.455816</ele>
        <time>2022-10-18T22:29:45.178Z</time>
      </trkpt>
      <trkpt lat="43.87564" lon="7.45403">
        <ele>387.916378</ele>
        <time>2022-10-18T22:30:29.193Z</time>
      </trkpt>
      <trkpt lat="43.8757" lon="7.45374">
        <ele>385.357587</ele>
        <time>2022-10-18T22:31:01.990Z</time>
      </trkpt>
      <trkpt lat="43.87583" lon="7.45302">
        <ele>378.912288</ele>
        <time>2022-10-18T22:32:22.262Z</time>
      </trkpt>
      <trkpt lat="43.87594" lon="7.45261">
        <ele>375.143752</ele>
        <time>2022-10-18T22:33:09.811Z</time>
      </trkpt>
      <trkpt lat="43.87606" lon="7.45237">
        <ele>372.625298</ele>
        <time>2022-10-18T22:33:41.245Z</time>
      </trkpt>
      <trkpt lat="43.87657" lon="7.45215">
        <ele>367.751498</ele>
        <time>2022-10-18T22:34:55.709Z</time>
      </trkpt>
      <trkpt lat="43.87669" lon="7.45201">
        <ele>366.489213</ele>
        <time>2022-10-18T22:35:18.746Z</time>
      </trkpt>
      <trkpt lat="43.87671" lon="7.45166">
        <ele>364.39943</ele>
        <time>2022-10-18T22:35:53.797Z</time>
      </trkpt>
      <trkpt lat="43.87683" lon="7.45138">
        <ele>362.46333</ele>
        <time>2022-10-18T22:36:27.390Z</time>
      </trkpt>
      <trkpt lat="43.87664" lon="7.45071">
        <ele>358.189814</ele>
        <time>2022-10-18T22:37:39.663Z</time>
      </trkpt>
      <trkpt lat="43.87665" lon="7.45067">
        <ele>357.981967</ele>
        <time>2022-10-18T22:37:43.252Z</time>
      </trkpt>
      <trkpt lat="43.87665" lon="7.45061">
        <ele>357.592025</ele>
        <time>2022-10-18T22:37:49.949Z</time>
      </trkpt>
      <trkpt lat="43.87669" lon="7.4505">
        <ele>356.844919</ele>
        <time>2022-10-18T22:38:01.790Z</time>
      </trkpt>
      <trkpt lat="43.87673" lon="7.45043">
        <ele>356.395191</ele>
        <time>2022-10-18T22:38:09.444Z</time>
      </trkpt>
      <trkpt lat="43.87727" lon="7.45003">
        <ele>354.10131</ele>
        <time>2022-10-18T22:39:30.995Z</time>
      </trkpt>
      <trkpt lat="43.87734" lon="7.45001">
        <ele>353.828979</ele>
        <time>2022-10-18T22:39:40.471Z</time>
      </trkpt>
      <trkpt lat="43.87747" lon="7.44996">
        <ele>353.342309</ele>
        <time>2022-10-18T22:39:57.219Z</time>
      </trkpt>
      <trkpt lat="43.87759" lon="7.44993">
        <ele>352.876295</ele>
        <time>2022-10-18T22:40:13.485Z</time>
      </trkpt>
      <trkpt lat="43.87762" lon="7.4496">
        <ele>351.97588</ele>
        <time>2022-10-18T22:40:43.932Z</time>
      </trkpt>
      <trkpt lat="43.87776" lon="7.44905">
        <ele>350.40283</ele>
        <time>2022-10-18T22:41:37.422Z</time>
      </trkpt>
      <trkpt lat="43.87781" lon="7.44908">
        <ele>350.201674</ele>
        <time>2022-10-18T22:41:44.438Z</time>
      </trkpt>
      <trkpt lat="43.87794" lon="7.44915">
        <ele>349.705642</ele>
        <time>2022-10-18T22:42:02.793Z</time>
      </trkpt>
      <trkpt lat="43.87799" lon="7.44917">
        <ele>349.705642</ele>
        <time>2022-10-18T22:42:09.206Z</time>
      </trkpt>
      <trkpt lat="43.87814" lon="7.44925">
        <ele>349.705642</ele>
        <time>2022-10-18T22:42:28.295Z</time>
      </trkpt>
      <trkpt lat="43.87824" lon="7.44929">
        <ele>349.705642</ele>
        <time>2022-10-18T22:42:41.012Z</time>
      </trkpt>
      <trkpt lat="43.87814" lon="7.44925">
        <ele>349.705642</ele>
        <time>2022-10-18T22:42:53.560Z</time>
      </trkpt>
      <trkpt lat="43.87799" lon="7.44917">
        <ele>349.705642</ele>
        <time>2022-10-18T22:43:12.334Z</time>
      </trkpt>
      <trkpt lat="43.87794" lon="7.44915">
        <ele>349.705642</ele>
        <time>2022-10-18T22:43:18.765Z</time>
      </trkpt>
      <trkpt lat="43.87781" lon="7.44908">
        <ele>349.705642</ele>
        <time>2022-10-18T22:43:37.024Z</time>
      </trkpt>
      <trkpt lat="43.87776" lon="7.44905">
        <ele>349.705642</ele>
        <time>2022-10-18T22:43:44.006Z</time>
      </trkpt>
      <trkpt lat="43.87778" lon="7.44863">
        <ele>349.705642</ele>
        <time>2022-10-18T22:44:20.676Z</time>
      </trkpt>
      <trkpt lat="43.87781" lon="7.44813">
        <ele>349.705642</ele>
        <time>2022-10-18T22:45:05.601Z</time>
      </trkpt>
      <trkpt lat="43.87783" lon="7.4479">
        <ele>349.705642</ele>
        <time>2022-10-18T22:45:26.387Z</time>
      </trkpt>
    </trkseg>
  </trk>
</gpx>